Bosporus — V2QY — position and weather

sailwx.info

Track history (hours):
 
Tides and Currents Weather Stations Pressure Air Temp Water Temp Dewpoint Dewpoint Depression Visibility Wind Speed Wind Dir Waves Ship Positions

Bosporus

Last reported at 2017-Jan-17 00:24 UTC. Time now 2017-Jan-20 12:02 UTC.
Position N 43°24' E 004°14'.

Length 100 m; draft 5.7 m.

Type: Cargo ship. MMSI: 304010802.

Date/timePositionNaut miles runAvg speedWind from/ knotsBaromVisibWave heightAir tempDewpointWater temp
2017-Jan-17 00:24N 43°24' E 004°14'7 8.3
2017-Jan-16 23:33N 43°21' E 004°23'8 7.7
2017-Jan-16 22:33N 43°19' E 004°33'9 8.9
2017-Jan-16 21:33N 43°18' E 004°46'9 7.4
2017-Jan-16 20:19N 43°23' E 004°56'2 0.1
2017-Jan-16 04:33N 43°24' E 004°53'6 6.3
2017-Jan-16 03:34N 43°18' E 004°57'10 9.6
2017-Jan-16 02:34N 43°16' E 004°44'1010.1
2017-Jan-16 01:33N 43°16' E 004°30'1010.0
2017-Jan-16 00:33N 43°17' E 004°16'  
2017-Jan-12 11:13N 43°11' E 004°30'20 9.4
2017-Jan-12 09:08N 43°18' E 004°55'5 8.0
2017-Jan-12 08:33N 43°22' E 004°57'5 0.3
2017-Jan-11 19:22N 43°26' E 004°54'2 2.5
2017-Jan-11 18:29N 43°25' E 004°56'0 0.0
2017-Jan-11 17:32N 43°25' E 004°56'0 0.0
2017-Jan-11 16:32N 43°25' E 004°56'0 0.0
2017-Jan-11 12:17N 43°25' E 004°56'0 0.0
2017-Jan-10 19:29N 43°25' E 004°56'0 0.0
2017-Jan-10 17:29N 43°25' E 004°56'1 0.2
2017-Jan-10 10:33N 43°23' E 004°57'  
2017-Jan-07 03:31N 43°21' E 004°58'  
Track history (hours):
 
Tides and Currents Weather Stations Pressure Air Temp Water Temp Dewpoint Dewpoint Depression Visibility Wind Speed Wind Dir Waves Ship Positions

Bosporus

Last reported at 2017-Jan-17 00:24 UTC. Time now 2017-Jan-20 12:02 UTC.
Position N 43°24' E 004°14'.

Length 100 m; draft 5.7 m.

Type: Cargo ship. MMSI: 304010802.

Date/timePositionNaut miles runAvg speedWind from/ knotsBaromVisibWave heightAir tempDewpointWater temp
2017-Jan-17 00:24N 43°24' E 004°14'7 8.3
2017-Jan-16 23:33N 43°21' E 004°23'8 7.7
2017-Jan-16 22:33N 43°19' E 004°33'9 8.9
2017-Jan-16 21:33N 43°18' E 004°46'9 7.4
2017-Jan-16 20:19N 43°23' E 004°56'2 0.1
2017-Jan-16 04:33N 43°24' E 004°53'6 6.3
2017-Jan-16 03:34N 43°18' E 004°57'10 9.6
2017-Jan-16 02:34N 43°16' E 004°44'1010.1
2017-Jan-16 01:33N 43°16' E 004°30'1010.0
2017-Jan-16 00:33N 43°17' E 004°16'  
2017-Jan-12 11:13N 43°11' E 004°30'20 9.4
2017-Jan-12 09:08N 43°18' E 004°55'5 8.0
2017-Jan-12 08:33N 43°22' E 004°57'5 0.3
2017-Jan-11 19:22N 43°26' E 004°54'2 2.5
2017-Jan-11 18:29N 43°25' E 004°56'0 0.0
2017-Jan-11 17:32N 43°25' E 004°56'0 0.0
2017-Jan-11 16:32N 43°25' E 004°56'0 0.0
2017-Jan-11 12:17N 43°25' E 004°56'0 0.0
2017-Jan-10 19:29N 43°25' E 004°56'0 0.0
2017-Jan-10 17:29N 43°25' E 004°56'1 0.2
2017-Jan-10 10:33N 43°23' E 004°57'  
2017-Jan-07 03:31N 43°21' E 004°58'  

Dump ship's entire track history